sensor_id;sensor_type;location;lat;lon;timestamp;temperature;humidity
3528;DHT22;1778;47.966;7.854;2023-11-21T00:00:33;9.30;99.90
3528;DHT22;1778;47.966;7.854;2023-11-21T00:01:34;9.30;99.90
3528;DHT22;1778;47.966;7.854;2023-11-21T00:02:36;9.40;99.90
3528;DHT22;1778;47.966;7.854;2023-11-21T00:03:39;9.30;99.90
3528;DHT22;1778;47.966;7.854;2023-11-21T00:04:41;9.30;99.90
3528;DHT22;1778;47.966;7.854;2023-11-21T00:05:43;9.30;99.90
3528;DHT22;1778;47.966;7.854;2023-11-21T00:06:44;9.30;99.90
3528;DHT22;1778;47.966;7.854;2023-11-21T00:07:48;9.20;99.90
3528;DHT22;1778;47.966;7.854;2023-11-21T00:08:50;9.30;99.90
3528;DHT22;1778;47.966;7.854;2023-11-21T00:09:51;9.30;99.90
3528;DHT22;1778;47.966;7.854;2023-11-21T00:10:52;9.30;99.90
3528;DHT22;1778;47.966;7.854;2023-11-21T00:11:54;9.20;99.90
3528;DHT22;1778;47.966;7.854;2023-11-21T00:12:55;9.20;99.90
3528;DHT22;1778;47.966;7.854;2023-11-21T00:13:57;9.20;99.90
3528;DHT22;1778;47.966;7.854;2023-11-21T00:14:58;9.20;99.90
3528;DHT22;1778;47.966;7.854;2023-11-21T00:16:00;9.30;99.90
3528;DHT22;1778;47.966;7.854;2023-11-21T00:17:01;9.30;99.90
3528;DHT22;1778;47.966;7.854;2023-11-21T00:18:14;9.30;99.90
3528;DHT22;1778;47.966;7.854;2023-11-21T00:19:15;9.30;99.90
3528;DHT22;1778;47.966;7.854;2023-11-21T00:20:17;9.40;99.90
3528;DHT22;1778;47.966;7.854;2023-11-21T00:21:19;9.40;99.90
3528;DHT22;1778;47.966;7.854;2023-11-21T00:22:20;9.30;99.90
3528;DHT22;1778;47.966;7.854;2023-11-21T00:23:22;9.30;99.90
3528;DHT22;1778;47.966;7.854;2023-11-21T00:24:23;9.30;99.90
3528;DHT22;1778;47.966;7.854;2023-11-21T00:25:26;9.40;99.90
3528;DHT22;1778;47.966;7.854;2023-11-21T00:26:27;9.30;99.90
3528;DHT22;1778;47.966;7.854;2023-11-21T00:27:36;9.30;99.90
3528;DHT22;1778;47.966;7.854;2023-11-21T00:28:37;9.30;99.90
3528;DHT22;1778;47.966;7.854;2023-11-21T00:29:39;9.20;99.90
3528;DHT22;1778;47.966;7.854;2023-11-21T00:30:40;9.20;99.90
3528;DHT22;1778;47.966;7.854;2023-11-21T00:31:42;9.20;99.90
3528;DHT22;1778;47.966;7.854;2023-11-21T00:32:44;9.20;99.90
3528;DHT22;1778;47.966;7.854;2023-11-21T00:33:46;9.20;99.90
3528;DHT22;1778;47.966;7.854;2023-11-21T00:34:47;9.20;99.90
3528;DHT22;1778;47.966;7.854;2023-11-21T00:35:49;9.20;99.90
3528;DHT22;1778;47.966;7.854;2023-11-21T00:36:51;9.20;99.90
3528;DHT22;1778;47.966;7.854;2023-11-21T00:37:52;9.20;99.90
3528;DHT22;1778;47.966;7.854;2023-11-21T00:38:54;9.20;99.90
3528;DHT22;1778;47.966;7.854;2023-11-21T00:39:57;9.20;99.90
3528;DHT22;1778;47.966;7.854;2023-11-21T00:40:58;9.20;99.90
3528;DHT22;1778;47.966;7.854;2023-11-21T00:42:00;9.20;99.90
3528;DHT22;1778;47.966;7.854;2023-11-21T00:43:01;9.20;99.90
3528;DHT22;1778;47.966;7.854;2023-11-21T00:44:06;9.20;99.90
3528;DHT22;1778;47.966;7.854;2023-11-21T00:45:08;9.10;99.90
3528;DHT22;1778;47.966;7.854;2023-11-21T00:46:10;9.10;99.90
3528;DHT22;1778;47.966;7.854;2023-11-21T00:47:11;9.10;99.90
3528;DHT22;1778;47.966;7.854;2023-11-21T00:48:14;9.10;99.90
3528;DHT22;1778;47.966;7.854;2023-11-21T00:49:16;9.10;99.90
3528;DHT22;1778;47.966;7.854;2023-11-21T00:50:17;9.10;99.90
3528;DHT22;1778;47.966;7.854;2023-11-21T00:51:18;9.10;99.90
3528;DHT22;1778;47.966;7.854;2023-11-21T00:52:20;9.10;99.90
3528;DHT22;1778;47.966;7.854;2023-11-21T00:53:21;9.10;99.90
3528;DHT22;1778;47.966;7.854;2023-11-21T00:54:23;9.10;99.90
3528;DHT22;1778;47.966;7.854;2023-11-21T00:55:26;9.10;99.90
3528;DHT22;1778;47.966;7.854;2023-11-21T00:56:31;9.10;99.90
3528;DHT22;1778;47.966;7.854;2023-11-21T00:57:45;9.10;99.90
3528;DHT22;1778;47.966;7.854;2023-11-21T00:58:47;9.10;99.90
3528;DHT22;1778;47.966;7.854;2023-11-21T00:59:51;9.10;99.90
3528;DHT22;1778;47.966;7.854;2023-11-21T01:00:53;9.10;99.90
3528;DHT22;1778;47.966;7.854;2023-11-21T01:01:54;9.10;99.90
3528;DHT22;1778;47.966;7.854;2023-11-21T01:02:56;9.10;99.90
3528;DHT22;1778;47.966;7.854;2023-11-21T01:03:57;9.10;99.90
3528;DHT22;1778;47.966;7.854;2023-11-21T01:04:59;9.10;99.90
3528;DHT22;1778;47.966;7.854;2023-11-21T01:06:00;9.10;99.90
3528;DHT22;1778;47.966;7.854;2023-11-21T01:07:02;9.10;99.90
3528;DHT22;1778;47.966;7.854;2023-11-21T01:08:04;9.10;99.90
3528;DHT22;1778;47.966;7.854;2023-11-21T01:09:06;9.00;99.90
3528;DHT22;1778;47.966;7.854;2023-11-21T01:10:09;9.10;99.90
3528;DHT22;1778;47.966;7.854;2023-11-21T01:11:11;9.10;99.90
3528;DHT22;1778;47.966;7.854;2023-11-21T01:12:13;9.10;99.90
3528;DHT22;1778;47.966;7.854;2023-11-21T01:13:15;9.10;99.90
3528;DHT22;1778;47.966;7.854;2023-11-21T01:14:17;9.10;99.90
3528;DHT22;1778;47.966;7.854;2023-11-21T01:15:19;9.10;99.90
3528;DHT22;1778;47.966;7.854;2023-11-21T01:16:20;9.00;99.90
3528;DHT22;1778;47.966;7.854;2023-11-21T01:17:22;9.00;99.90
3528;DHT22;1778;47.966;7.854;2023-11-21T01:18:25;9.10;99.90
3528;DHT22;1778;47.966;7.854;2023-11-21T01:19:27;9.10;99.90
3528;DHT22;1778;47.966;7.854;2023-11-21T01:20:31;9.00;99.90
3528;DHT22;1778;47.966;7.854;2023-11-21T01:21:32;9.00;99.90
3528;DHT22;1778;47.966;7.854;2023-11-21T01:22:35;9.10;99.90
3528;DHT22;1778;47.966;7.854;2023-11-21T01:23:36;9.10;99.90
3528;DHT22;1778;47.966;7.854;2023-11-21T01:24:38;9.10;99.90
3528;DHT22;1778;47.966;7.854;2023-11-21T01:25:39;9.10;99.90
3528;DHT22;1778;47.966;7.854;2023-11-21T01:26:40;9.10;99.90
3528;DHT22;1778;47.966;7.854;2023-11-21T01:27:42;9.10;99.90
3528;DHT22;1778;47.966;7.854;2023-11-21T01:28:44;9.10;99.90
3528;DHT22;1778;47.966;7.854;2023-11-21T01:29:46;9.00;99.90
3528;DHT22;1778;47.966;7.854;2023-11-21T01:30:48;9.00;99.90
3528;DHT22;1778;47.966;7.854;2023-11-21T01:31:49;9.00;99.90
3528;DHT22;1778;47.966;7.854;2023-11-21T01:32:51;9.00;99.90
3528;DHT22;1778;47.966;7.854;2023-11-21T01:33:52;9.00;99.90
3528;DHT22;1778;47.966;7.854;2023-11-21T01:34:54;9.00;99.90
3528;DHT22;1778;47.966;7.854;2023-11-21T01:35:56;9.00;99.90
3528;DHT22;1778;47.966;7.854;2023-11-21T01:36:58;9.00;99.90
3528;DHT22;1778;47.966;7.854;2023-11-21T01:37:59;9.00;99.90
3528;DHT22;1778;47.966;7.854;2023-11-21T01:39:01;9.00;99.90
3528;DHT22;1778;47.966;7.854;2023-11-21T01:40:02;9.00;99.90
3528;DHT22;1778;47.966;7.854;2023-11-21T01:41:06;9.00;99.90
3528;DHT22;1778;47.966;7.854;2023-11-21T01:42:08;9.00;99.90
3528;DHT22;1778;47.966;7.854;2023-11-21T01:43:09;9.00;99.90
3528;DHT22;1778;47.966;7.854;2023-11-21T01:44:11;9.00;99.90
3528;DHT22;1778;47.966;7.854;2023-11-21T01:45:14;9.10;99.90
3528;DHT22;1778;47.966;7.854;2023-11-21T01:46:16;9.00;99.90
3528;DHT22;1778;47.966;7.854;2023-11-21T01:47:17;9.00;99.90
3528;DHT22;1778;47.966;7.854;2023-11-21T01:48:19;9.00;99.90
3528;DHT22;1778;47.966;7.854;2023-11-21T01:49:21;9.00;99.90
3528;DHT22;1778;47.966;7.854;2023-11-21T01:50:24;9.10;99.90
3528;DHT22;1778;47.966;7.854;2023-11-21T01:51:26;9.00;99.90
3528;DHT22;1778;47.966;7.854;2023-11-21T01:52:28;9.00;99.90
3528;DHT22;1778;47.966;7.854;2023-11-21T01:53:30;9.00;99.90
3528;DHT22;1778;47.966;7.854;2023-11-21T01:54:34;9.00;99.90
3528;DHT22;1778;47.966;7.854;2023-11-21T01:55:45;9.00;99.90
3528;DHT22;1778;47.966;7.854;2023-11-21T01:56:47;9.00;99.90
3528;DHT22;1778;47.966;7.854;2023-11-21T01:57:49;8.90;99.90
3528;DHT22;1778;47.966;7.854;2023-11-21T01:58:50;9.00;99.90
3528;DHT22;1778;47.966;7.854;2023-11-21T01:59:54;8.90;99.90
3528;DHT22;1778;47.966;7.854;2023-11-21T02:00:55;8.90;99.90
3528;DHT22;1778;47.966;7.854;2023-11-21T02:01:57;9.00;99.90
3528;DHT22;1778;47.966;7.854;2023-11-21T02:02:59;9.00;99.90
3528;DHT22;1778;47.966;7.854;2023-11-21T02:04:01;9.00;99.90
3528;DHT22;1778;47.966;7.854;2023-11-21T02:05:03;9.00;99.90
3528;DHT22;1778;47.966;7.854;2023-11-21T02:06:05;8.90;99.90
3528;DHT22;1778;47.966;7.854;2023-11-21T02:07:07;9.00;99.90
3528;DHT22;1778;47.966;7.854;2023-11-21T02:08:09;8.90;99.90
3528;DHT22;1778;47.966;7.854;2023-11-21T02:09:10;9.00;99.90
3528;DHT22;1778;47.966;7.854;2023-11-21T02:10:16;9.00;99.90
3528;DHT22;1778;47.966;7.854;2023-11-21T02:11:18;9.00;99.90
3528;DHT22;1778;47.966;7.854;2023-11-21T02:12:21;9.00;99.90
3528;DHT22;1778;47.966;7.854;2023-11-21T02:13:22;9.00;99.90
3528;DHT22;1778;47.966;7.854;2023-11-21T02:14:23;9.00;99.90
3528;DHT22;1778;47.966;7.854;2023-11-21T02:15:25;9.00;99.90
3528;DHT22;1778;47.966;7.854;2023-11-21T02:16:30;9.10;99.90
3528;DHT22;1778;47.966;7.854;2023-11-21T02:17:33;9.10;99.90
3528;DHT22;1778;47.966;7.854;2023-11-21T02:18:34;9.00;99.90
3528;DHT22;1778;47.966;7.854;2023-11-21T02:19:36;9.00;99.90
3528;DHT22;1778;47.966;7.854;2023-11-21T02:20:37;9.10;99.90
3528;DHT22;1778;47.966;7.854;2023-11-21T02:21:40;9.10;99.90
3528;DHT22;1778;47.966;7.854;2023-11-21T02:22:52;9.20;99.90
3528;DHT22;1778;47.966;7.854;2023-11-21T02:24:01;9.10;99.90
3528;DHT22;1778;47.966;7.854;2023-11-21T02:25:03;9.10;99.90
3528;DHT22;1778;47.966;7.854;2023-11-21T02:26:05;9.10;99.90
3528;DHT22;1778;47.966;7.854;2023-11-21T02:27:06;9.10;99.90
3528;DHT22;1778;47.966;7.854;2023-11-21T02:28:08;9.10;99.90
3528;DHT22;1778;47.966;7.854;2023-11-21T02:29:10;9.20;99.90
3528;DHT22;1778;47.966;7.854;2023-11-21T02:30:15;9.20;99.90
3528;DHT22;1778;47.966;7.854;2023-11-21T02:31:17;9.10;99.90
3528;DHT22;1778;47.966;7.854;2023-11-21T02:32:20;9.20;99.90
3528;DHT22;1778;47.966;7.854;2023-11-21T02:33:24;9.20;99.90
3528;DHT22;1778;47.966;7.854;2023-11-21T02:34:26;9.20;99.90
3528;DHT22;1778;47.966;7.854;2023-11-21T02:35:27;9.10;99.90
3528;DHT22;1778;47.966;7.854;2023-11-21T02:36:29;9.20;99.90
3528;DHT22;1778;47.966;7.854;2023-11-21T02:37:31;9.10;99.90
3528;DHT22;1778;47.966;7.854;2023-11-21T02:38:32;9.10;99.90
3528;DHT22;1778;47.966;7.854;2023-11-21T02:39:34;9.10;99.90
3528;DHT22;1778;47.966;7.854;2023-11-21T02:40:36;9.10;99.90
3528;DHT22;1778;47.966;7.854;2023-11-21T02:41:38;9.20;99.90
3528;DHT22;1778;47.966;7.854;2023-11-21T02:42:40;9.20;99.90
3528;DHT22;1778;47.966;7.854;2023-11-21T02:43:42;9.10;99.90
3528;DHT22;1778;47.966;7.854;2023-11-21T02:44:44;9.20;99.90
3528;DHT22;1778;47.966;7.854;2023-11-21T02:45:51;9.20;99.90
3528;DHT22;1778;47.966;7.854;2023-11-21T02:46:52;9.20;99.90
3528;DHT22;1778;47.966;7.854;2023-11-21T02:47:54;9.10;99.90
3528;DHT22;1778;47.966;7.854;2023-11-21T02:49:01;9.10;99.90
3528;DHT22;1778;47.966;7.854;2023-11-21T02:50:03;9.10;99.90
3528;DHT22;1778;47.966;7.854;2023-11-21T02:51:04;9.10;99.90
3528;DHT22;1778;47.966;7.854;2023-11-21T02:52:06;9.10;99.90
3528;DHT22;1778;47.966;7.854;2023-11-21T02:53:09;9.10;99.90
3528;DHT22;1778;47.966;7.854;2023-11-21T02:54:22;9.10;99.90
3528;DHT22;1778;47.966;7.854;2023-11-21T02:55:33;9.10;99.90
3528;DHT22;1778;47.966;7.854;2023-11-21T02:56:37;9.10;99.90
3528;DHT22;1778;47.966;7.854;2023-11-21T02:57:41;9.10;99.90
3528;DHT22;1778;47.966;7.854;2023-11-21T02:58:43;9.10;99.90
3528;DHT22;1778;47.966;7.854;2023-11-21T02:59:45;9.10;99.90
3528;DHT22;1778;47.966;7.854;2023-11-21T03:00:47;9.10;99.90
3528;DHT22;1778;47.966;7.854;2023-11-21T03:01:48;9.10;99.90
3528;DHT22;1778;47.966;7.854;2023-11-21T03:02:50;9.10;99.90
3528;DHT22;1778;47.966;7.854;2023-11-21T03:03:52;9.10;99.90
3528;DHT22;1778;47.966;7.854;2023-11-21T03:04:54;9.00;99.90
3528;DHT22;1778;47.966;7.854;2023-11-21T03:05:55;9.10;99.90
3528;DHT22;1778;47.966;7.854;2023-11-21T03:06:57;9.00;99.90
3528;DHT22;1778;47.966;7.854;2023-11-21T03:07:58;9.10;99.90
3528;DHT22;1778;47.966;7.854;2023-11-21T03:09:00;9.00;99.90
3528;DHT22;1778;47.966;7.854;2023-11-21T03:10:02;9.00;99.90
3528;DHT22;1778;47.966;7.854;2023-11-21T03:11:06;9.10;99.90
3528;DHT22;1778;47.966;7.854;2023-11-21T03:12:09;9.00;99.90
3528;DHT22;1778;47.966;7.854;2023-11-21T03:13:11;9.00;99.90
3528;DHT22;1778;47.966;7.854;2023-11-21T03:14:12;9.00;99.90
3528;DHT22;1778;47.966;7.854;2023-11-21T03:15:14;9.00;99.90
3528;DHT22;1778;47.966;7.854;2023-11-21T03:16:17;9.00;99.90
3528;DHT22;1778;47.966;7.854;2023-11-21T03:17:20;8.90;99.90
3528;DHT22;1778;47.966;7.854;2023-11-21T03:18:22;8.90;99.90
3528;DHT22;1778;47.966;7.854;2023-11-21T03:19:24;8.90;99.90
3528;DHT22;1778;47.966;7.854;2023-11-21T03:20:25;8.90;99.90
3528;DHT22;1778;47.966;7.854;2023-11-21T03:21:26;8.90;99.90
3528;DHT22;1778;47.966;7.854;2023-11-21T03:22:28;8.90;99.90
3528;DHT22;1778;47.966;7.854;2023-11-21T03:23:30;8.90;99.90
3528;DHT22;1778;47.966;7.854;2023-11-21T03:24:31;8.90;99.90
3528;DHT22;1778;47.966;7.854;2023-11-21T03:25:33;8.90;99.90
3528;DHT22;1778;47.966;7.854;2023-11-21T03:26:35;8.90;99.90
3528;DHT22;1778;47.966;7.854;2023-11-21T03:27:38;8.90;99.90
3528;DHT22;1778;47.966;7.854;2023-11-21T03:28:40;8.90;99.90
3528;DHT22;1778;47.966;7.854;2023-11-21T03:29:42;9.00;99.90
3528;DHT22;1778;47.966;7.854;2023-11-21T03:30:43;9.00;99.90
3528;DHT22;1778;47.966;7.854;2023-11-21T03:31:45;9.00;99.90
3528;DHT22;1778;47.966;7.854;2023-11-21T03:32:46;9.00;99.90
3528;DHT22;1778;47.966;7.854;2023-11-21T03:33:48;9.00;99.90
3528;DHT22;1778;47.966;7.854;2023-11-21T03:34:57;9.00;99.90
3528;DHT22;1778;47.966;7.854;2023-11-21T03:35:59;9.00;99.90
3528;DHT22;1778;47.966;7.854;2023-11-21T03:37:01;9.00;99.90
3528;DHT22;1778;47.966;7.854;2023-11-21T03:38:03;9.00;99.90
3528;DHT22;1778;47.966;7.854;2023-11-21T03:39:05;9.00;99.90
3528;DHT22;1778;47.966;7.854;2023-11-21T03:40:08;9.00;99.90
3528;DHT22;1778;47.966;7.854;2023-11-21T03:41:10;9.00;99.90
3528;DHT22;1778;47.966;7.854;2023-11-21T03:42:11;9.10;99.90
3528;DHT22;1778;47.966;7.854;2023-11-21T03:43:14;9.10;99.90
3528;DHT22;1778;47.966;7.854;2023-11-21T03:44:15;9.10;99.90
3528;DHT22;1778;47.966;7.854;2023-11-21T03:45:17;9.10;99.90
3528;DHT22;1778;47.966;7.854;2023-11-21T03:46:18;9.10;99.90
3528;DHT22;1778;47.966;7.854;2023-11-21T03:47:20;9.10;99.90
3528;DHT22;1778;47.966;7.854;2023-11-21T03:48:22;9.10;99.90
3528;DHT22;1778;47.966;7.854;2023-11-21T03:49:24;9.10;99.90
3528;DHT22;1778;47.966;7.854;2023-11-21T03:50:25;9.00;99.90
3528;DHT22;1778;47.966;7.854;2023-11-21T03:51:27;9.10;99.90
3528;DHT22;1778;47.966;7.854;2023-11-21T03:52:35;9.10;99.90
3528;DHT22;1778;47.966;7.854;2023-11-21T03:53:58;9.10;99.90
3528;DHT22;1778;47.966;7.854;2023-11-21T03:54:59;9.10;99.90
3528;DHT22;1778;47.966;7.854;2023-11-21T03:56:02;9.10;99.90
3528;DHT22;1778;47.966;7.854;2023-11-21T03:57:06;9.00;99.90
3528;DHT22;1778;47.966;7.854;2023-11-21T03:58:07;9.00;99.90
3528;DHT22;1778;47.966;7.854;2023-11-21T03:59:10;9.00;99.90
3528;DHT22;1778;47.966;7.854;2023-11-21T04:00:13;9.00;99.90
3528;DHT22;1778;47.966;7.854;2023-11-21T04:01:24;9.00;99.90
3528;DHT22;1778;47.966;7.854;2023-11-21T04:02:25;9.00;99.90
3528;DHT22;1778;47.966;7.854;2023-11-21T04:03:27;9.00;99.90
3528;DHT22;1778;47.966;7.854;2023-11-21T04:04:29;9.00;99.90
3528;DHT22;1778;47.966;7.854;2023-11-21T04:05:30;9.00;99.90
3528;DHT22;1778;47.966;7.854;2023-11-21T04:06:32;9.00;99.90
3528;DHT22;1778;47.966;7.854;2023-11-21T04:07:34;9.00;99.90
3528;DHT22;1778;47.966;7.854;2023-11-21T04:08:36;9.00;99.90
3528;DHT22;1778;47.966;7.854;2023-11-21T04:09:37;9.00;99.90
3528;DHT22;1778;47.966;7.854;2023-11-21T04:10:39;9.00;99.90
3528;DHT22;1778;47.966;7.854;2023-11-21T04:11:40;9.00;99.90
3528;DHT22;1778;47.966;7.854;2023-11-21T04:12:44;9.00;99.90
3528;DHT22;1778;47.966;7.854;2023-11-21T04:13:46;8.90;99.90
3528;DHT22;1778;47.966;7.854;2023-11-21T04:14:48;9.00;99.90
3528;DHT22;1778;47.966;7.854;2023-11-21T04:15:49;9.00;99.90
3528;DHT22;1778;47.966;7.854;2023-11-21T04:16:51;8.90;99.90
3528;DHT22;1778;47.966;7.854;2023-11-21T04:17:52;8.90;99.90
3528;DHT22;1778;47.966;7.854;2023-11-21T04:18:54;8.90;99.90
3528;DHT22;1778;47.966;7.854;2023-11-21T04:19:55;8.90;99.90
3528;DHT22;1778;47.966;7.854;2023-11-21T04:20:57;8.90;99.90
3528;DHT22;1778;47.966;7.854;2023-11-21T04:21:58;8.90;99.90
3528;DHT22;1778;47.966;7.854;2023-11-21T04:23:00;8.90;99.90
3528;DHT22;1778;47.966;7.854;2023-11-21T04:24:02;8.90;99.90
3528;DHT22;1778;47.966;7.854;2023-11-21T04:25:03;8.90;99.90
3528;DHT22;1778;47.966;7.854;2023-11-21T04:26:05;8.90;99.90
3528;DHT22;1778;47.966;7.854;2023-11-21T04:27:08;9.00;99.90
3528;DHT22;1778;47.966;7.854;2023-11-21T04:28:09;9.00;99.90
3528;DHT22;1778;47.966;7.854;2023-11-21T04:29:10;9.00;99.90
3528;DHT22;1778;47.966;7.854;2023-11-21T04:30:12;9.00;99.90
3528;DHT22;1778;47.966;7.854;2023-11-21T04:31:14;9.00;99.90
3528;DHT22;1778;47.966;7.854;2023-11-21T04:32:16;9.00;99.90
3528;DHT22;1778;47.966;7.854;2023-11-21T04:33:17;9.10;99.90
3528;DHT22;1778;47.966;7.854;2023-11-21T04:34:19;9.10;99.90
3528;DHT22;1778;47.966;7.854;2023-11-21T04:35:21;9.00;99.90
3528;DHT22;1778;47.966;7.854;2023-11-21T04:36:22;9.00;99.90
3528;DHT22;1778;47.966;7.854;2023-11-21T04:37:24;9.00;99.90
3528;DHT22;1778;47.966;7.854;2023-11-21T04:38:25;9.00;99.90
3528;DHT22;1778;47.966;7.854;2023-11-21T04:39:27;9.00;99.90
3528;DHT22;1778;47.966;7.854;2023-11-21T04:40:28;9.00;99.90
3528;DHT22;1778;47.966;7.854;2023-11-21T04:41:30;8.90;99.90
3528;DHT22;1778;47.966;7.854;2023-11-21T04:42:36;8.90;99.90
3528;DHT22;1778;47.966;7.854;2023-11-21T04:43:38;8.90;99.90
3528;DHT22;1778;47.966;7.854;2023-11-21T04:44:39;8.90;99.90
3528;DHT22;1778;47.966;7.854;2023-11-21T04:45:42;8.90;99.90
3528;DHT22;1778;47.966;7.854;2023-11-21T04:46:43;8.90;99.90
3528;DHT22;1778;47.966;7.854;2023-11-21T04:47:45;8.90;99.90
3528;DHT22;1778;47.966;7.854;2023-11-21T04:48:47;9.00;99.90
3528;DHT22;1778;47.966;7.854;2023-11-21T04:49:48;9.00;99.90
3528;DHT22;1778;47.966;7.854;2023-11-21T04:50:52;9.00;99.90
3528;DHT22;1778;47.966;7.854;2023-11-21T04:51:58;8.90;99.90
3528;DHT22;1778;47.966;7.854;2023-11-21T04:53:06;9.00;99.90
3528;DHT22;1778;47.966;7.854;2023-11-21T04:54:08;8.90;99.90
3528;DHT22;1778;47.966;7.854;2023-11-21T04:55:10;9.00;99.90
3528;DHT22;1778;47.966;7.854;2023-11-21T04:56:12;9.00;99.90
3528;DHT22;1778;47.966;7.854;2023-11-21T04:57:14;8.90;99.90
3528;DHT22;1778;47.966;7.854;2023-11-21T04:58:15;8.90;99.90
3528;DHT22;1778;47.966;7.854;2023-11-21T04:59:17;8.90;99.90
3528;DHT22;1778;47.966;7.854;2023-11-21T05:00:18;8.90;99.90
3528;DHT22;1778;47.966;7.854;2023-11-21T05:01:21;8.90;99.90
3528;DHT22;1778;47.966;7.854;2023-11-21T05:02:22;8.90;99.90
3528;DHT22;1778;47.966;7.854;2023-11-21T05:03:35;8.90;99.90
3528;DHT22;1778;47.966;7.854;2023-11-21T05:04:37;8.90;99.90
3528;DHT22;1778;47.966;7.854;2023-11-21T05:05:39;9.00;99.90
3528;DHT22;1778;47.966;7.854;2023-11-21T05:06:40;9.00;99.90
3528;DHT22;1778;47.966;7.854;2023-11-21T05:07:41;8.90;99.90
3528;DHT22;1778;47.966;7.854;2023-11-21T05:08:44;9.00;99.90
3528;DHT22;1778;47.966;7.854;2023-11-21T05:09:45;9.00;99.90
3528;DHT22;1778;47.966;7.854;2023-11-21T05:10:47;9.00;99.90
3528;DHT22;1778;47.966;7.854;2023-11-21T05:11:50;9.00;99.90
3528;DHT22;1778;47.966;7.854;2023-11-21T05:12:51;9.00;99.90
3528;DHT22;1778;47.966;7.854;2023-11-21T05:13:53;9.10;99.90
3528;DHT22;1778;47.966;7.854;2023-11-21T05:14:54;9.00;99.90
3528;DHT22;1778;47.966;7.854;2023-11-21T05:15:56;9.00;99.90
3528;DHT22;1778;47.966;7.854;2023-11-21T05:17:01;9.00;99.90
3528;DHT22;1778;47.966;7.854;2023-11-21T05:18:03;9.00;99.90
3528;DHT22;1778;47.966;7.854;2023-11-21T05:19:04;9.00;99.90
3528;DHT22;1778;47.966;7.854;2023-11-21T05:20:07;9.00;99.90
3528;DHT22;1778;47.966;7.854;2023-11-21T05:21:11;8.90;99.90
3528;DHT22;1778;47.966;7.854;2023-11-21T05:22:13;8.90;99.90
3528;DHT22;1778;47.966;7.854;2023-11-21T05:23:14;8.90;99.90
3528;DHT22;1778;47.966;7.854;2023-11-21T05:24:16;8.90;99.90
3528;DHT22;1778;47.966;7.854;2023-11-21T05:25:17;8.90;99.90
3528;DHT22;1778;47.966;7.854;2023-11-21T05:26:22;8.90;99.90
3528;DHT22;1778;47.966;7.854;2023-11-21T05:27:23;8.90;99.90
3528;DHT22;1778;47.966;7.854;2023-11-21T05:28:24;8.90;99.90
3528;DHT22;1778;47.966;7.854;2023-11-21T05:29:26;8.80;99.90
3528;DHT22;1778;47.966;7.854;2023-11-21T05:30:28;8.80;99.90
3528;DHT22;1778;47.966;7.854;2023-11-21T05:31:30;8.90;99.90
3528;DHT22;1778;47.966;7.854;2023-11-21T05:32:32;8.90;99.90
3528;DHT22;1778;47.966;7.854;2023-11-21T05:33:33;8.90;99.90
3528;DHT22;1778;47.966;7.854;2023-11-21T05:34:35;8.90;99.90
3528;DHT22;1778;47.966;7.854;2023-11-21T05:35:37;8.90;99.90
3528;DHT22;1778;47.966;7.854;2023-11-21T05:36:38;8.90;99.90
3528;DHT22;1778;47.966;7.854;2023-11-21T05:37:39;9.00;99.90
3528;DHT22;1778;47.966;7.854;2023-11-21T05:38:41;9.00;99.90
3528;DHT22;1778;47.966;7.854;2023-11-21T05:39:42;8.90;99.90
3528;DHT22;1778;47.966;7.854;2023-11-21T05:40:44;8.90;99.90
3528;DHT22;1778;47.966;7.854;2023-11-21T05:41:46;8.90;99.90
3528;DHT22;1778;47.966;7.854;2023-11-21T05:42:51;8.90;99.90
3528;DHT22;1778;47.966;7.854;2023-11-21T05:43:53;8.90;99.90
3528;DHT22;1778;47.966;7.854;2023-11-21T05:44:55;8.90;99.90
3528;DHT22;1778;47.966;7.854;2023-11-21T05:46:00;8.90;99.90
3528;DHT22;1778;47.966;7.854;2023-11-21T05:47:03;8.90;99.90
3528;DHT22;1778;47.966;7.854;2023-11-21T05:48:05;8.90;99.90
3528;DHT22;1778;47.966;7.854;2023-11-21T05:49:07;8.90;99.90
3528;DHT22;1778;47.966;7.854;2023-11-21T05:50:18;8.90;99.90
3528;DHT22;1778;47.966;7.854;2023-11-21T05:51:37;8.90;99.90
3528;DHT22;1778;47.966;7.854;2023-11-21T05:52:46;8.90;99.90
3528;DHT22;1778;47.966;7.854;2023-11-21T05:53:47;8.90;99.90
3528;DHT22;1778;47.966;7.854;2023-11-21T05:54:49;8.80;99.90
3528;DHT22;1778;47.966;7.854;2023-11-21T05:55:50;8.80;99.90
3528;DHT22;1778;47.966;7.854;2023-11-21T05:56:52;8.80;99.90
3528;DHT22;1778;47.966;7.854;2023-11-21T05:57:53;8.80;99.90
3528;DHT22;1778;47.966;7.854;2023-11-21T05:58:55;8.80;99.90
3528;DHT22;1778;47.966;7.854;2023-11-21T05:59:56;8.80;99.90
3528;DHT22;1778;47.966;7.854;2023-11-21T06:00:58;8.80;99.90
3528;DHT22;1778;47.966;7.854;2023-11-21T06:01:59;8.80;99.90
3528;DHT22;1778;47.966;7.854;2023-11-21T06:03:01;8.80;99.90
3528;DHT22;1778;47.966;7.854;2023-11-21T06:04:02;8.70;99.90
3528;DHT22;1778;47.966;7.854;2023-11-21T06:05:07;8.80;99.90
3528;DHT22;1778;47.966;7.854;2023-11-21T06:06:09;8.70;99.90
3528;DHT22;1778;47.966;7.854;2023-11-21T06:07:10;8.80;99.90
3528;DHT22;1778;47.966;7.854;2023-11-21T06:08:12;8.80;99.90
3528;DHT22;1778;47.966;7.854;2023-11-21T06:09:13;8.80;99.90
3528;DHT22;1778;47.966;7.854;2023-11-21T06:10:14;8.80;99.90
3528;DHT22;1778;47.966;7.854;2023-11-21T06:11:16;8.80;99.90
3528;DHT22;1778;47.966;7.854;2023-11-21T06:12:18;8.80;99.90
3528;DHT22;1778;47.966;7.854;2023-11-21T06:13:21;8.80;99.90
3528;DHT22;1778;47.966;7.854;2023-11-21T06:14:26;8.80;99.90
3528;DHT22;1778;47.966;7.854;2023-11-21T06:15:27;8.80;99.90
3528;DHT22;1778;47.966;7.854;2023-11-21T06:16:30;8.90;99.90
3528;DHT22;1778;47.966;7.854;2023-11-21T06:17:31;8.90;99.90
3528;DHT22;1778;47.966;7.854;2023-11-21T06:18:34;8.90;99.90
3528;DHT22;1778;47.966;7.854;2023-11-21T06:19:36;8.90;99.90
3528;DHT22;1778;47.966;7.854;2023-11-21T06:20:38;8.80;99.90
3528;DHT22;1778;47.966;7.854;2023-11-21T06:21:39;8.80;99.90
3528;DHT22;1778;47.966;7.854;2023-11-21T06:22:42;8.80;99.90
3528;DHT22;1778;47.966;7.854;2023-11-21T06:23:44;8.80;99.90
3528;DHT22;1778;47.966;7.854;2023-11-21T06:24:45;8.70;99.90
3528;DHT22;1778;47.966;7.854;2023-11-21T06:25:47;8.70;99.90
3528;DHT22;1778;47.966;7.854;2023-11-21T06:26:49;8.70;99.90
3528;DHT22;1778;47.966;7.854;2023-11-21T06:27:51;8.70;99.90
3528;DHT22;1778;47.966;7.854;2023-11-21T06:28:54;8.70;99.90
3528;DHT22;1778;47.966;7.854;2023-11-21T06:29:55;8.70;99.90
3528;DHT22;1778;47.966;7.854;2023-11-21T06:30:57;8.70;99.90
3528;DHT22;1778;47.966;7.854;2023-11-21T06:32:06;8.70;99.90
3528;DHT22;1778;47.966;7.854;2023-11-21T06:33:07;8.70;99.90
3528;DHT22;1778;47.966;7.854;2023-11-21T06:34:09;8.70;99.90
3528;DHT22;1778;47.966;7.854;2023-11-21T06:35:11;8.70;99.90
3528;DHT22;1778;47.966;7.854;2023-11-21T06:36:13;8.70;99.90
3528;DHT22;1778;47.966;7.854;2023-11-21T06:37:15;8.60;99.90
3528;DHT22;1778;47.966;7.854;2023-11-21T06:38:16;8.70;99.90
3528;DHT22;1778;47.966;7.854;2023-11-21T06:39:19;8.70;99.90
3528;DHT22;1778;47.966;7.854;2023-11-21T06:40:24;8.70;99.90
3528;DHT22;1778;47.966;7.854;2023-11-21T06:41:26;8.70;99.90
3528;DHT22;1778;47.966;7.854;2023-11-21T06:42:27;8.70;99.90
3528;DHT22;1778;47.966;7.854;2023-11-21T06:43:30;8.70;99.90
3528;DHT22;1778;47.966;7.854;2023-11-21T06:44:34;8.70;99.90
3528;DHT22;1778;47.966;7.854;2023-11-21T06:45:36;8.70;99.90
3528;DHT22;1778;47.966;7.854;2023-11-21T06:46:38;8.70;99.90
3528;DHT22;1778;47.966;7.854;2023-11-21T06:47:44;8.70;99.90
3528;DHT22;1778;47.966;7.854;2023-11-21T06:48:46;8.60;99.90
3528;DHT22;1778;47.966;7.854;2023-11-21T06:49:48;8.70;99.90
3528;DHT22;1778;47.966;7.854;2023-11-21T06:50:49;8.70;99.90
3528;DHT22;1778;47.966;7.854;2023-11-21T06:51:50;8.60;99.90
3528;DHT22;1778;47.966;7.854;2023-11-21T06:52:52;8.60;99.90
3528;DHT22;1778;47.966;7.854;2023-11-21T06:53:53;8.60;99.90